createdAt,value
2022-09-07T00:03:02.891Z,100411.75
2022-09-07T00:06:08.308Z,100407.38
2022-09-07T00:09:10.818Z,100406.47
2022-09-07T00:12:13.654Z,100401.06
2022-09-07T00:15:16.667Z,100402.00
2022-09-07T00:18:19.684Z,100393.13
2022-09-07T00:21:22.418Z,100391.44
2022-09-07T00:24:25.405Z,100395.22
2022-09-07T00:27:28.004Z,100392.34
2022-09-07T00:30:30.886Z,100385.94
2022-09-07T00:33:33.400Z,100392.63
2022-09-07T00:36:36.235Z,100384.34
2022-09-07T00:39:38.898Z,100386.31
2022-09-07T00:42:41.767Z,100393.63
2022-09-07T00:45:44.240Z,100391.00
2022-09-07T00:48:53.373Z,100407.34
2022-09-07T00:51:59.412Z,100400.22
2022-09-07T00:55:06.741Z,100404.69
2022-09-07T00:58:09.557Z,100399.44
2022-09-07T01:01:12.895Z,100391.28
2022-09-07T01:04:15.713Z,100388.72
2022-09-07T01:07:19.147Z,100388.69
2022-09-07T01:10:28.104Z,100395.03
2022-09-07T01:13:31.247Z,100390.75
2022-09-07T01:16:46.018Z,100389.03
2022-09-07T01:20:00.598Z,100387.13
2022-09-07T01:23:33.637Z,100386.44
2022-09-07T01:26:39.374Z,100375.47
2022-09-07T01:29:47.720Z,100372.03
2022-09-07T01:33:32.023Z,100368.56
2022-09-07T01:37:18.084Z,100366.84
2022-09-07T01:40:41.211Z,100368.75
2022-09-07T01:43:58.842Z,100367.91
2022-09-07T01:47:07.003Z,100363.47
2022-09-07T01:50:17.657Z,100357.34
2022-09-07T01:53:28.298Z,100361.91
2022-09-07T01:56:37.562Z,100360.13
2022-09-07T01:59:51.928Z,100361.97
2022-09-07T02:03:14.391Z,100362.19
2022-09-07T02:06:25.420Z,100366.69
2022-09-07T02:09:38.507Z,100362.19
2022-09-07T02:12:47.517Z,100349.63
2022-09-07T02:16:01.561Z,100354.09
2022-09-07T02:19:14.239Z,100369.53
2022-09-07T02:22:21.356Z,100372.37
2022-09-07T02:25:26.975Z,100369.72
2022-09-07T02:28:34.509Z,100363.44
2022-09-07T02:31:37.316Z,100363.41
2022-09-07T02:34:39.893Z,100363.44
2022-09-07T02:37:43.962Z,100359.06
2022-09-07T02:40:54.673Z,100366.37
2022-09-07T02:43:57.987Z,100369.91
2022-09-07T02:47:15.635Z,100363.75
2022-09-07T02:50:32.939Z,100356.53
2022-09-07T02:53:41.285Z,100345.78
2022-09-07T02:56:51.979Z,100352.09
2022-09-07T03:00:34.524Z,100352.00
2022-09-07T03:03:58.275Z,100350.28
2022-09-07T03:07:17.770Z,100352.81
2022-09-07T03:10:20.861Z,100352.91
2022-09-07T03:13:28.499Z,100342.16
2022-09-07T03:16:31.300Z,100345.78
2022-09-07T03:19:33.794Z,100354.84
2022-09-07T03:22:36.619Z,100348.59
2022-09-07T03:25:39.165Z,100345.03
2022-09-07T03:28:42.274Z,100344.06
2022-09-07T03:31:44.935Z,100341.31
2022-09-07T03:34:48.612Z,100340.44
2022-09-07T03:37:51.215Z,100341.53
2022-09-07T03:41:02.390Z,100343.19
2022-09-07T03:44:06.016Z,100336.03
2022-09-07T03:47:08.820Z,100342.47
2022-09-07T03:50:11.404Z,100349.66
2022-09-07T03:53:14.195Z,100347.09
2022-09-07T03:56:19.474Z,100346.19
2022-09-07T03:59:22.235Z,100340.81
2022-09-07T04:02:24.839Z,100343.53
2022-09-07T04:05:27.687Z,100341.78
2022-09-07T04:08:32.575Z,100329.00
2022-09-07T04:11:35.858Z,100339.03
2022-09-07T04:14:38.326Z,100334.59
2022-09-07T04:17:41.121Z,100330.06
2022-09-07T04:20:44.269Z,100342.72
2022-09-07T04:23:47.457Z,100337.22
2022-09-07T04:26:50.010Z,100340.91
2022-09-07T04:29:52.802Z,100350.78
2022-09-07T04:32:55.349Z,100349.84
2022-09-07T04:36:00.924Z,100356.16
2022-09-07T04:39:04.893Z,100362.37
2022-09-07T04:42:07.745Z,100361.34
2022-09-07T04:45:10.609Z,100368.53
2022-09-07T04:48:13.402Z,100370.25
2022-09-07T04:51:16.338Z,100372.94
2022-09-07T04:54:20.108Z,100370.19
2022-09-07T04:57:25.905Z,100367.38
2022-09-07T05:00:29.013Z,100369.13
2022-09-07T05:03:33.058Z,100365.34
2022-09-07T05:06:35.903Z,100358.97
2022-09-07T05:09:38.514Z,100367.84
2022-09-07T05:12:41.287Z,100361.34
2022-09-07T05:15:43.935Z,100360.28
2022-09-07T05:18:55.439Z,100360.06
2022-09-07T05:21:58.540Z,100357.09
2022-09-07T05:25:01.310Z,100366.88
2022-09-07T05:28:04.261Z,100377.62
2022-09-07T05:31:19.451Z,100384.56
2022-09-07T05:34:30.940Z,100379.50
2022-09-07T05:37:34.281Z,100383.59
2022-09-07T05:40:40.539Z,100370.50
2022-09-07T05:47:07.139Z,100375.44
2022-09-07T05:50:10.757Z,100385.59
2022-09-07T05:53:13.307Z,100387.22
2022-09-07T05:56:16.396Z,100382.06
2022-09-07T05:59:18.924Z,100386.59
2022-09-07T06:02:21.882Z,100387.56
2022-09-07T06:05:24.893Z,100388.78
2022-09-07T06:08:27.498Z,100400.25
2022-09-07T06:11:30.383Z,100402.81
2022-09-07T06:14:35.696Z,100408.56
2022-09-07T06:17:38.619Z,100405.44
2022-09-07T06:20:41.122Z,100399.94
2022-09-07T06:23:44.676Z,100394.72
2022-09-07T06:26:47.253Z,100394.09
2022-09-07T06:29:50.044Z,100390.31
2022-09-07T06:32:52.903Z,100392.34
2022-09-07T06:36:00.513Z,100380.44
2022-09-07T06:39:03.100Z,100381.84
2022-09-07T06:42:06.501Z,100383.56
2022-09-07T06:45:17.024Z,100381.53
2022-09-07T06:48:19.909Z,100380.50
2022-09-07T06:51:26.764Z,100379.03
2022-09-07T06:57:53.423Z,100394.16
2022-09-07T07:00:56.671Z,100379.84
2022-09-07T07:04:00.014Z,100390.88
2022-09-07T07:07:02.784Z,100385.09
2022-09-07T07:10:05.873Z,100382.75
2022-09-07T07:13:08.887Z,100395.63
2022-09-07T07:16:13.351Z,100403.03
2022-09-07T07:19:16.636Z,100399.81
2022-09-07T07:22:43.074Z,100396.03
2022-09-07T07:25:42.315Z,100401.03
2022-09-07T07:29:03.070Z,100403.50
2022-09-07T07:32:06.776Z,100396.50
2022-09-07T07:35:10.180Z,100404.84
2022-09-07T07:48:21.682Z,100396.41
2022-09-07T07:51:24.934Z,100390.16
2022-09-07T07:54:27.379Z,100392.31
2022-09-07T07:57:30.467Z,100390.94
2022-09-07T08:00:53.046Z,100385.56
2022-09-07T08:03:55.860Z,100385.03
2022-09-07T08:06:58.332Z,100389.78
2022-09-07T08:10:01.180Z,100387.19
2022-09-07T08:13:03.981Z,100384.47
2022-09-07T08:16:08.074Z,100381.81
2022-09-07T08:19:10.593Z,100380.00
2022-09-07T08:22:13.392Z,100366.50
2022-09-07T08:25:15.920Z,100386.00
2022-09-07T08:28:19.756Z,100366.63
2022-09-07T08:31:23.210Z,100377.25
2022-09-07T08:34:27.187Z,100375.13
2022-09-07T08:37:29.970Z,100376.88
2022-09-07T08:40:36.514Z,100371.69
2022-09-07T08:43:50.089Z,100365.13
2022-09-07T08:46:56.748Z,100373.97
2022-09-07T08:50:12.022Z,100377.34
2022-09-07T08:53:17.032Z,100369.66
2022-09-07T08:56:26.084Z,100371.50
2022-09-07T08:59:40.132Z,100372.16
2022-09-07T09:02:45.530Z,100361.53
2022-09-07T09:06:01.704Z,100366.09
2022-09-07T09:09:19.384Z,100369.34
2022-09-07T09:12:29.183Z,100370.44
2022-09-07T09:15:58.919Z,100371.41
2022-09-07T09:19:47.342Z,100368.12
2022-09-07T09:22:52.253Z,100369.44
2022-09-07T09:26:00.149Z,100372.81
2022-09-07T09:29:20.929Z,100355.91
2022-09-07T09:32:45.474Z,100357.28
2022-09-07T09:35:50.970Z,100349.03
2022-09-07T09:38:53.828Z,100344.88
2022-09-07T09:41:59.091Z,100351.38
2022-09-07T09:45:22.044Z,100339.88
2022-09-07T09:48:32.862Z,100334.22
2022-09-07T09:55:36.392Z,100326.03
2022-09-07T10:05:39.663Z,100321.94
2022-09-07T10:08:54.878Z,100323.00
2022-09-07T10:12:07.254Z,100311.28
2022-09-07T10:15:41.324Z,100312.03
2022-09-07T10:18:58.761Z,100301.94
2022-09-07T10:22:04.789Z,100301.53
2022-09-07T10:25:32.540Z,100296.47
2022-09-07T10:32:12.749Z,100289.69
2022-09-07T10:35:20.683Z,100287.47
2022-09-07T10:38:25.089Z,100282.91
2022-09-07T10:41:37.323Z,100269.84
2022-09-07T10:44:55.749Z,100274.03
2022-09-07T10:48:32.464Z,100265.62
2022-09-07T10:51:51.166Z,100257.37
2022-09-07T10:54:56.501Z,100254.59
2022-09-07T11:02:10.270Z,100267.19
2022-09-07T11:05:38.517Z,100261.44
2022-09-07T11:12:24.909Z,100239.69
2022-09-07T11:15:40.313Z,100251.47
2022-09-07T11:22:47.232Z,100260.06
2022-09-07T11:26:08.871Z,100254.97
2022-09-07T11:29:34.940Z,100251.13
2022-09-07T11:32:38.748Z,100244.47
2022-09-07T11:35:53.829Z,100243.06
2022-09-07T11:39:07.782Z,100239.50
2022-09-07T11:42:48.803Z,100234.31
2022-09-07T11:45:55.386Z,100235.41
2022-09-07T11:48:58.946Z,100232.75
2022-09-07T11:52:06.160Z,100222.84
2022-09-07T11:55:12.763Z,100218.97
2022-09-07T11:58:37.979Z,100207.44
2022-09-07T12:02:04.052Z,100208.22
2022-09-07T12:05:38.423Z,100201.41
2022-09-07T12:08:56.018Z,100204.09
2022-09-07T12:12:42.188Z,100192.22
2022-09-07T12:15:57.881Z,100197.19
2022-09-07T12:19:12.919Z,100199.22
2022-09-07T12:22:22.526Z,100192.25
2022-09-07T12:25:25.903Z,100187.00
2022-09-07T12:28:34.261Z,100182.87
2022-09-07T12:31:59.166Z,100184.19
2022-09-07T12:35:02.385Z,100185.47
2022-09-07T12:38:30.815Z,100185.28
2022-09-07T12:41:47.432Z,100175.72
2022-09-07T12:45:35.819Z,100168.00
2022-09-07T12:48:48.745Z,100169.22
2022-09-07T12:52:15.121Z,100163.84
2022-09-07T12:56:15.138Z,100163.34
2022-09-07T12:59:30.871Z,100150.84
2022-09-07T13:02:58.632Z,100154.50
2022-09-07T13:10:00.354Z,100149.97
2022-09-07T13:13:16.790Z,100154.72
2022-09-07T13:16:30.714Z,100147.94
2022-09-07T13:19:57.033Z,100150.22
2022-09-07T13:23:23.817Z,100151.16
2022-09-07T13:26:58.548Z,100143.31
2022-09-07T13:30:07.280Z,100140.84
2022-09-07T13:33:26.012Z,100140.72
2022-09-07T13:36:45.684Z,100147.59
2022-09-07T13:39:49.724Z,100137.53
2022-09-07T13:42:52.717Z,100141.22
2022-09-07T13:45:55.565Z,100135.06
2022-09-07T13:49:06.958Z,100133.19
2022-09-07T13:52:15.682Z,100137.84
2022-09-07T13:55:46.588Z,100125.50
2022-09-07T13:58:52.125Z,100130.66
2022-09-07T14:01:55.812Z,100143.09
2022-09-07T14:05:00.579Z,100138.59
2022-09-07T14:08:03.426Z,100136.81
2022-09-07T14:11:20.782Z,100140.09
2022-09-07T14:14:29.567Z,100131.47
2022-09-07T14:17:32.338Z,100142.66
2022-09-07T14:20:40.552Z,100124.41
2022-09-07T14:23:43.240Z,100135.34
2022-09-07T14:26:48.257Z,100138.22
2022-09-07T14:29:51.173Z,100143.97
2022-09-07T14:33:00.763Z,100140.84
2022-09-07T14:36:23.343Z,100128.53
2022-09-07T14:39:29.821Z,100123.72
2022-09-07T14:42:32.670Z,100116.09
2022-09-07T14:45:36.221Z,100117.09
2022-09-07T14:48:40.556Z,100122.91
2022-09-07T14:51:44.647Z,100127.66
2022-09-07T14:54:51.483Z,100122.78
2022-09-07T14:58:15.902Z,100128.81
2022-09-07T15:01:38.151Z,100121.38
2022-09-07T15:04:40.871Z,100128.03
2022-09-07T15:07:47.961Z,100136.72
2022-09-07T15:14:25.288Z,100141.28
2022-09-07T15:17:48.172Z,100144.50
2022-09-07T15:20:51.243Z,100144.00
2022-09-07T15:23:57.109Z,100139.72
2022-09-07T15:27:03.509Z,100135.97
2022-09-07T15:30:06.847Z,100145.75
2022-09-07T15:33:11.475Z,100138.47
2022-09-07T15:36:15.842Z,100143.13
2022-09-07T15:39:21.265Z,100143.62
2022-09-07T15:45:48.117Z,100134.72
2022-09-07T15:48:53.678Z,100118.37
2022-09-07T15:52:05.098Z,100122.88
2022-09-07T15:55:08.846Z,100116.31
2022-09-07T15:58:12.552Z,100112.75
2022-09-07T16:04:38.788Z,100112.16
2022-09-07T16:11:18.537Z,100106.03
2022-09-07T16:14:21.466Z,100109.22
2022-09-07T16:17:33.991Z,100104.44
2022-09-07T16:20:38.863Z,100110.53
2022-09-07T16:23:43.964Z,100105.94
2022-09-07T16:26:46.412Z,100096.12
2022-09-07T16:29:49.262Z,100088.75
2022-09-07T16:32:51.830Z,100095.91
2022-09-07T16:36:02.926Z,100088.44
2022-09-07T16:39:05.395Z,100086.25
2022-09-07T16:42:08.948Z,100081.56
2022-09-07T16:48:35.790Z,100073.84
2022-09-07T16:51:39.696Z,100061.88
2022-09-07T16:54:42.856Z,100064.69
2022-09-07T17:01:10.281Z,100049.84
2022-09-07T17:04:13.208Z,100053.22
2022-09-07T17:07:15.905Z,100045.75
2022-09-07T17:10:18.392Z,100027.25
2022-09-07T17:13:21.109Z,100031.66
2022-09-07T17:16:26.445Z,100039.72
2022-09-07T17:19:29.770Z,100031.09
2022-09-07T17:22:32.636Z,100040.53
2022-09-07T17:25:35.385Z,100036.66
2022-09-07T17:28:38.664Z,100033.66
2022-09-07T17:35:04.539Z,100047.37
2022-09-07T17:41:33.887Z,100056.06
2022-09-07T17:44:38.422Z,100060.87
2022-09-07T17:47:41.040Z,100065.81
2022-09-07T17:50:43.764Z,100067.06
2022-09-07T17:53:46.332Z,100077.34
2022-09-07T17:56:49.109Z,100075.78
2022-09-07T18:03:14.375Z,100090.88
2022-09-07T18:06:16.804Z,100099.56
2022-09-07T18:09:19.972Z,100097.19
2022-09-07T18:12:22.760Z,100105.00
2022-09-07T18:15:25.534Z,100102.19
2022-09-07T18:18:28.473Z,100110.12
2022-09-07T18:21:33.420Z,100110.69
2022-09-07T18:24:36.951Z,100112.91
2022-09-07T18:27:40.446Z,100105.34
2022-09-07T18:30:43.097Z,100103.84
2022-09-07T18:33:47.458Z,100098.69
2022-09-07T18:36:50.304Z,100066.38
2022-09-07T18:39:54.363Z,100082.62
2022-09-07T18:42:57.541Z,100088.72
2022-09-07T18:46:08.507Z,100092.50
2022-09-07T18:49:11.129Z,100093.56
2022-09-07T18:55:36.267Z,100105.16
2022-09-07T18:58:39.254Z,100102.06
2022-09-07T19:01:41.889Z,100101.78
2022-09-07T19:08:08.589Z,100111.25
2022-09-07T19:11:13.495Z,100117.31
2022-09-07T19:14:17.488Z,100118.56
2022-09-07T19:17:20.380Z,100109.91
2022-09-07T19:20:23.002Z,100104.06
2022-09-07T19:23:25.701Z,100111.13
2022-09-07T19:26:30.205Z,100107.06
2022-09-07T19:29:33.157Z,100110.75
2022-09-07T19:32:35.690Z,100109.06
2022-09-07T19:35:38.527Z,100100.94
2022-09-07T19:38:41.088Z,100104.72
2022-09-07T19:41:45.238Z,100100.41
2022-09-07T19:44:48.017Z,100095.81
2022-09-07T19:47:50.738Z,100093.50
2022-09-07T19:50:53.500Z,100082.22
2022-09-07T19:53:56.225Z,100086.19
2022-09-07T19:56:58.817Z,100082.25
2022-09-07T20:00:01.692Z,100055.50
2022-09-07T20:03:14.190Z,100075.25
2022-09-07T20:06:18.292Z,100071.72
2022-09-07T20:09:20.749Z,100068.81
2022-09-07T20:12:23.475Z,100065.44
2022-09-07T20:15:26.302Z,100082.81
2022-09-07T20:18:29.036Z,100081.13
2022-09-07T20:21:31.499Z,100092.13
2022-09-07T20:24:35.230Z,100078.72
2022-09-07T20:27:37.635Z,100091.34
2022-09-07T20:30:44.077Z,100077.84
2022-09-07T20:33:47.854Z,100068.19
2022-09-07T20:36:50.966Z,100084.87
2022-09-07T20:39:53.436Z,100086.22
2022-09-07T20:42:56.225Z,100088.31
2022-09-07T20:45:59.673Z,100073.06
2022-09-07T20:49:02.396Z,100079.09
2022-09-07T20:52:04.837Z,100074.59
2022-09-07T20:55:07.993Z,100074.81
2022-09-07T20:58:10.540Z,100071.53
2022-09-07T21:01:15.205Z,100076.03
2022-09-07T21:04:17.803Z,100074.50
2022-09-07T21:07:20.485Z,100066.63
2022-09-07T21:10:22.900Z,100066.94
2022-09-07T21:13:25.591Z,100064.59
2022-09-07T21:16:28.845Z,100070.19
2022-09-07T21:19:31.596Z,100065.91
2022-09-07T21:22:34.091Z,100053.44
2022-09-07T21:25:44.039Z,100066.19
2022-09-07T21:28:46.480Z,100061.78
2022-09-07T21:31:49.653Z,100065.22
2022-09-07T21:34:52.119Z,100064.50
2022-09-07T21:37:54.811Z,100076.31
2022-09-07T21:40:57.251Z,100068.41
2022-09-07T21:44:01.943Z,100075.72
2022-09-07T21:47:04.571Z,100073.31
2022-09-07T21:50:07.774Z,100075.28
2022-09-07T21:53:10.874Z,100076.56
2022-09-07T21:56:14.373Z,100068.31
2022-09-07T21:59:16.873Z,100059.53
2022-09-07T22:02:19.673Z,100067.87
2022-09-07T22:05:22.408Z,100064.25
2022-09-07T22:08:24.815Z,100054.72
2022-09-07T22:11:29.115Z,100065.62
2022-09-07T22:14:31.612Z,100065.19
2022-09-07T22:17:34.513Z,100046.41
2022-09-07T22:20:36.959Z,100051.34
2022-09-07T22:23:42.675Z,100039.94
2022-09-07T22:26:46.397Z,100037.50
2022-09-07T22:29:49.102Z,100031.16
2022-09-07T22:32:51.858Z,100028.66
2022-09-07T22:35:54.535Z,100028.88
2022-09-07T22:38:59.297Z,100026.16
2022-09-07T22:42:01.981Z,100025.41
2022-09-07T22:45:05.885Z,100033.06
2022-09-07T22:48:08.734Z,100029.72
2022-09-07T22:51:11.714Z,100026.47
2022-09-07T22:54:14.449Z,100023.75
2022-09-07T22:57:16.928Z,100012.94
2022-09-07T23:00:20.073Z,100006.81
2022-09-07T23:03:22.539Z,100012.66
2022-09-07T23:06:30.660Z,100001.84
2022-09-07T23:09:33.156Z,99998.91
2022-09-07T23:12:35.888Z,99997.94
2022-09-07T23:15:38.806Z,99999.78
2022-09-07T23:18:41.645Z,100005.38
2022-09-07T23:21:44.119Z,99998.00
2022-09-07T23:24:46.847Z,99992.25
2022-09-07T23:27:49.281Z,99980.63
2022-09-07T23:30:52.013Z,99983.88
2022-09-07T23:33:55.666Z,99980.56
2022-09-07T23:36:58.377Z,99984.44
2022-09-07T23:40:00.855Z,99985.41
2022-09-07T23:43:03.570Z,99988.13
2022-09-07T23:46:06.129Z,99983.47
2022-09-07T23:49:08.916Z,99981.56
2022-09-07T23:52:11.309Z,99982.47
2022-09-07T23:55:13.999Z,99980.75
2022-09-07T23:58:16.570Z,99969.72
